地図

経路データ

SID SEASON NUMBER BASIN SUBBASIN NAME ISO_TIME NATURE LAT LON WMO_WIND WMO_PRES WMO_AGENCY TRACK_TYPE DIST2LAND LANDFALL IFLAG USA_AGENCY USA_ATCF_ID USA_LAT USA_LON USA_RECORD USA_STATUS USA_WIND USA_PRES USA_SSHS USA_R34_NE USA_R34_SE USA_R34_SW USA_R34_NW USA_R50_NE USA_R50_SE USA_R50_SW USA_R50_NW USA_R64_NE USA_R64_SE USA_R64_SW USA_R64_NW USA_POCI USA_ROCI USA_RMW USA_EYE TOKYO_LAT TOKYO_LON TOKYO_GRADE TOKYO_WIND TOKYO_PRES TOKYO_R50_DIR TOKYO_R50_LONG TOKYO_R50_SHORT TOKYO_R30_DIR TOKYO_R30_LONG TOKYO_R30_SHORT TOKYO_LAND CMA_LAT CMA_LON CMA_CAT CMA_WIND CMA_PRES HKO_LAT HKO_LON HKO_CAT HKO_WIND HKO_PRES NEWDELHI_LAT NEWDELHI_LON NEWDELHI_GRADE NEWDELHI_WIND NEWDELHI_PRES NEWDELHI_CI NEWDELHI_DP NEWDELHI_POCI REUNION_LAT REUNION_LON REUNION_TYPE REUNION_WIND REUNION_PRES REUNION_TNUM REUNION_CI REUNION_RMW REUNION_R34_NE REUNION_R34_SE REUNION_R34_SW REUNION_R34_NW REUNION_R50_NE REUNION_R50_SE REUNION_R50_SW REUNION_R50_NW REUNION_R64_NE REUNION_R64_SE REUNION_R64_SW REUNION_R64_NW BOM_LAT BOM_LON BOM_TYPE BOM_WIND BOM_PRES BOM_TNUM BOM_CI BOM_RMW BOM_R34_NE BOM_R34_SE BOM_R34_SW BOM_R34_NW BOM_R50_NE BOM_R50_SE BOM_R50_SW BOM_R50_NW BOM_R64_NE BOM_R64_SE BOM_R64_SW BOM_R64_NW BOM_ROCI BOM_POCI BOM_EYE BOM_POS_METHOD BOM_PRES_METHOD NADI_LAT NADI_LON NADI_CAT NADI_WIND NADI_PRES WELLINGTON_LAT WELLINGTON_LON WELLINGTON_WIND WELLINGTON_PRES DS824_LAT DS824_LON DS824_STAGE DS824_WIND DS824_PRES TD9636_LAT TD9636_LON TD9636_STAGE TD9636_WIND TD9636_PRES TD9635_LAT TD9635_LON TD9635_WIND TD9635_PRES TD9635_ROCI NEUMANN_LAT NEUMANN_LON NEUMANN_CLASS NEUMANN_WIND NEUMANN_PRES MLC_LAT MLC_LON MLC_CLASS MLC_WIND MLC_PRES USA_GUST BOM_GUST BOM_GUST_PER REUNION_GUST REUNION_GUST_PER USA_SEAHGT USA_SEARAD_NE USA_SEARAD_SE USA_SEARAD_SW USA_SEARAD_NW STORM_SPEED STORM_DIR
1947011S12063 1947 2 SI MM NOT_NAMED 1947-01-11 06:00:00 TS -12.2500 63.2750 reunion main 1067 1019 O________OO___ jtwc_sh SH081947 -12.4000 63.3000 -1 -11.8000 63.2000 99 9.90000 -12.4000 63.3000 TC 35 -12.4000 63.3000 2 9 248
1947011S12063 1947 2 SI MM NOT_NAMED 1947-01-11 09:00:00 TS -12.4233 62.8251 main 1019 977 P________PP___ SH081947 -12.5903 62.6926 -1 -12.5903 62.6926 TC 35 -12.6214 62.7054 2 9 248
1947011S12063 1947 2 SI MM NOT_NAMED 1947-01-11 12:00:00 TS -12.6070 62.3845 main 977 931 O________OP___ jtwc_sh SH081947 -12.8000 62.1000 -1 -12.8000 62.1000 TC 35 -12.8437 62.1181 2 10 245
1947011S12063 1947 2 SI MM NOT_NAMED 1947-01-11 15:00:00 TS -12.8573 61.8773 main 921 876 P________PP___ SH081947 -13.0424 61.5350 -1 -13.0424 61.5350 TC 35 -13.0691 61.5469 2 12 243
1947011S12063 1947 2 SI MM NOT_NAMED 1947-01-11 18:00:00 TS -13.1407 61.3203 main 872 814 O________OO___ jtwc_sh SH081947 -13.3000 61.0000 -1 -13.3000 61.0000 TC 35 -13.3000 61.0000 2 13 243
1947011S12063 1947 2 SI MM NOT_NAMED 1947-01-11 21:00:00 TS -13.4540 60.6977 main 804 746 P________PP___ SH081947 -13.5574 60.4849 -1 -13.5574 60.4849 TC 35 -13.5368 60.4840 2 14 243
1947011S12063 1947 2 SI MM NOT_NAMED 1947-01-12 00:00:00 TS -13.7907 59.9991 main 746 711 O________OP___ jtwc_sh SH081947 -13.8000 60.0000 -1 -13.8000 60.0000 TC 35 -13.7720 59.9974 2 13 244
1947011S12063 1947 2 SI MM NOT_NAMED 1947-01-12 03:00:00 TS -14.0087 59.5357 main 708 665 P________PP___ SH081947 -14.0149 59.5349 -1 -14.0149 59.5349 TC 35 -13.9962 59.5372 2 10 241
1947011S12063 1947 2 SI MM NOT_NAMED 1947-01-12 06:00:00 TS -14.2692 59.1231 reunion main 665 637 O________OO___ jtwc_sh SH081947 -14.2000 59.1000 -1 -14.2000 59.1000 TC 35 -14.2000 59.1000 2 9 237
1947011S12063 1947 2 SI MM NOT_NAMED 1947-01-12 09:00:00 TS -14.4690 58.7930 main 637 621 P________PP___ SH081947 -14.3574 58.6924 -1 -14.3574 58.6924 TC 35 -14.3712 58.6740 2 7 238
1947011S12063 1947 2 SI MM NOT_NAMED 1947-01-12 12:00:00 TS -14.6300 58.5235 main 621 596 O________OP___ jtwc_sh SH081947 -14.5000 58.3000 -1 -14.5000 58.3000 TC 35 -14.5220 58.2695 2 6 238
1947011S12063 1947 2 SI MM NOT_NAMED 1947-01-12 15:00:00 TS -14.7726 58.2862 main 596 582 P________PP___ SH081947 -14.6499 57.8999 -1 -14.6499 57.8999 TC 35 -14.6619 57.8803 2 6 244
1947011S12063 1947 2 SI MM NOT_NAMED 1947-01-12 18:00:00 TS -14.8833 57.9858 main 582 570 O________OO___ jtwc_sh SH081947 -14.8000 57.5000 -1 -14.8000 57.5000 TC 35 -14.8000 57.5000 2 6 249
1947011S12063 1947 2 SI MM NOT_NAMED 1947-01-12 21:00:00 TS -15.0000 57.6629 main 570 559 P________PP___ SH081947 -14.9500 57.0925 -1 -14.9500 57.0925 TC 35 -14.9663 57.0814 2 7 250
1947011S12063 1947 2 SI MM NOT_NAMED 1947-01-13 00:00:00 TS -15.1149 57.3392 main 559 549 O________OP___ jtwc_sh SH081947 -15.1000 56.7000 -1 -15.1000 56.7000 TC 35 -15.1302 56.6753 2 7 250
1947011S12063 1947 2 SI MM NOT_NAMED 1947-01-13 03:00:00 TS -15.2281 57.0173 main 550 540 P________PP___ SH081947 -15.2575 56.3200 -1 -15.2575 56.3200 TC 35 -15.2789 56.3065 2 6 250
1947011S12063 1947 2 SI MM NOT_NAMED 1947-01-13 06:00:00 TS -15.3250 56.7250 reunion main 543 534 O________OO___ jtwc_sh SH081947 -15.4000 56.0000 -1 -15.4000 56.0000 TC 35 -15.4000 56.0000 2 5 252
1947011S12063 1947 2 SI MM NOT_NAMED 1947-01-13 09:00:00 TS -15.4002 56.4783 main 536 536 P________PP___ SH081947 -15.5224 55.7625 -1 -15.5224 55.7625 TC 35 -15.4824 55.7810 2 5 255
1947011S12063 1947 2 SI MM NOT_NAMED 1947-01-13 12:00:00 TS -15.4447 56.2695 main 541 532 O________OP___ jtwc_sh SH081947 -15.6000 55.6000 -1 -15.6000 55.6000 TC 35 -15.5371 55.6247 2 4 262
1947011S12063 1947 2 SI MM NOT_NAMED 1947-01-13 15:00:00 TS -15.4525 56.0814 main 535 535 P________PP___ SH081947 -15.6150 55.4850 -1 -15.6150 55.4850 TC 35 -15.5732 55.5061 2 4 270
1947011S12063 1947 2 SI MM NOT_NAMED 1947-01-13 18:00:00 TS -15.4431 55.9021 main 552 552 O________OO___ jtwc_sh SH081947 -15.6000 55.4000 -1 -15.6000 55.4000 TC 35 -15.6000 55.4000 2 4 272
1947011S12063 1947 2 SI MM NOT_NAMED 1947-01-13 21:00:00 TS -15.4395 55.7120 main 557 536 P________PP___ SH081947 -15.5925 55.3075 -1 -15.5925 55.3075 TC 35 -15.6320 55.2921 2 4 270
1947011S12063 1947 2 SI MM NOT_NAMED 1947-01-14 00:00:00 TS -15.4434 55.5117 main 536 514 O________OP___ jtwc_sh SH081947 -15.6000 55.2000 -1 -15.6000 55.2000 TC 35 -15.6572 55.1874 2 4 266
1947011S12063 1947 2 SI MM NOT_NAMED 1947-01-14 03:00:00 TS -15.4701 55.2960 main 514 493 P________PP___ SH081947 -15.6500 55.0725 -1 -15.6500 55.0725 TC 35 -15.6788 55.0640 2 4 263
1947011S12063 1947 2 SI MM NOT_NAMED 1947-01-14 06:00:00 TS -15.5000 55.0500 reunion main 493 461 O________OO___ jtwc_sh SH081947 -15.7000 54.9000 -1 -15.7000 54.9000 TC 35 -15.7000 54.9000 2 5 266
1947011S12063 1947 2 SI MM NOT_NAMED 1947-01-14 09:00:00 TS -15.5076 54.7663 main 461 429 P________PP___ SH081947 -15.7000 54.6724 -1 -15.7000 54.6724 TC 35 -15.7292 54.6641 2 6 268
1947011S12063 1947 2 SI MM NOT_NAMED 1947-01-14 12:00:00 TS -15.5175 54.4497 main 418 386 O________OP___ jtwc_sh SH081947 -15.7000 54.4000 -1 -15.7000 54.4000 TC 35 -15.7577 54.3876 2 6 266
1947011S12063 1947 2 SI MM NOT_NAMED 1947-01-14 15:00:00 TS -15.5545 54.1155 main 386 354 P________PP___ SH081947 -15.7500 54.1001 -1 -15.7500 54.1001 TC 35 -15.7823 54.0922 2 6 263
1947011S12063 1947 2 SI MM NOT_NAMED 1947-01-14 18:00:00 TS -15.5933 53.7844 main 354 322 O________OO___ jtwc_sh SH081947 -15.8000 53.8000 -1 -15.8000 53.8000 TC 35 -15.8000 53.8000 2 6 265
1947011S12063 1947 2 SI MM NOT_NAMED 1947-01-14 21:00:00 TS -15.6080 53.4887 main 322 290 P________PP___ SH081947 -15.8074 53.5425 -1 -15.8074 53.5425 TC 35 -15.7907 53.5507 2 6 267
1947011S12063 1947 2 SI MM NOT_NAMED 1947-01-15 00:00:00 TS -15.6186 53.2068 main 290 258 O________OP___ jtwc_sh SH081947 -15.8000 53.3000 -1 -15.8000 53.3000 TC 35 -15.7772 53.3072 2 5 267
1947011S12063 1947 2 SI MM NOT_NAMED 1947-01-15 03:00:00 TS -15.6369 52.9301 main 258 238 P________PP___ SH081947 -15.7924 53.0575 -1 -15.7924 53.0575 TC 35 -15.7751 53.0601 2 5 264
1947011S12063 1947 2 SI MM NOT_NAMED 1947-01-15 06:00:00 TS -15.6750 52.6500 reunion main 238 206 O________OO___ jtwc_sh SH081947 -15.8000 52.8000 -1 -15.8000 52.8000 TC 35 -15.8000 52.8000 2 6 261
1947011S12063 1947 2 SI MM NOT_NAMED 1947-01-15 09:00:00 TS -15.7276 52.3411 main 195 166 P________PP___ SH081947 -15.8275 52.5075 -1 -15.8275 52.5075 TC 35 -15.8389 52.4900 2 6 257
1947011S12063 1947 2 SI MM NOT_NAMED 1947-01-15 12:00:00 TS -15.8162 52.0285 main 166 140 O________OP___ jtwc_sh SH081947 -15.9000 52.2000 -1 -15.9000 52.2000 TC 35 -15.9103 52.1699 2 6 250
1947011S12063 1947 2 SI MM NOT_NAMED 1947-01-15 15:00:00 TS -15.9448 51.7227 main 140 125 P________PP___ SH081947 -16.0200 51.8850 -1 -16.0200 51.8850 TC 35 -16.0264 51.8649 2 6 241
1947011S12063 1947 2 SI MM NOT_NAMED 1947-01-15 18:00:00 TS -16.1229 51.4492 main 120 111 O________OO___ jtwc_sh SH081947 -16.2000 51.6000 -1 -16.2000 51.6000 TC 35 -16.2000 51.6000 2 6 231
1947011S12063 1947 2 SI MM NOT_NAMED 1947-01-15 21:00:00 TS -16.3350 51.2210 main 111 106 P________PP___ SH081947 -16.4200 51.3700 -1 -16.4200 51.3700 TC 35 -16.4099 51.3747 2 6 219
1947011S12063 1947 2 SI MM NOT_NAMED 1947-01-16 00:00:00 TS -16.5970 51.0428 main 108 108 O________OP___ jtwc_sh SH081947 -16.7000 51.2000 -1 -16.7000 51.2000 TC 35 -16.6799 51.1955 2 6 208
1947011S12063 1947 2 SI MM NOT_NAMED 1947-01-16 03:00:00 TS -16.8949 50.9067 main 117 111 P________PP___ SH081947 -17.0125 51.0700 -1 -17.0125 51.0700 TC 35 -17.0099 51.0685 2 7 198
1947011S12063 1947 2 SI MM NOT_NAMED 1947-01-16 06:00:00 TS -17.2500 50.8250 reunion main 115 115 O________OO___ jtwc_sh SH081947 -17.4000 51.0000 -1 -17.4000 51.0000 TC 35 -17.4000 51.0000 2 8 189
1947011S12063 1947 2 SI MM NOT_NAMED 1947-01-16 09:00:00 TS -17.6697 50.7751 main 137 137 P________PP___ SH081947 -17.8775 50.9700 -1 -17.8775 50.9700 TC 35 -17.8505 50.9601 2 9 183
1947011S12063 1947 2 SI MM NOT_NAMED 1947-01-16 12:00:00 TS -18.1308 50.7801 main 144 144 O________OP___ jtwc_sh SH081947 -18.4000 51.0000 -1 -18.4000 51.0000 TC 35 -18.3548 50.9804 2 9 177
1947011S12063 1947 2 SI MM NOT_NAMED 1947-01-16 15:00:00 TS -18.5943 50.8329 main 154 154 P________PP___ SH081947 -18.9075 51.0775 -1 -18.9075 51.0775 TC 35 -18.8817 51.0604 2 9 171
1947011S12063 1947 2 SI MM NOT_NAMED 1947-01-16 18:00:00 TS -19.0510 50.9311 main 184 184 O________OO___ jtwc_sh SH081947 -19.4000 51.2000 -1 -19.4000 51.2000 TC 35 -19.4000 51.2000 2 9 168
1947011S12063 1947 2 SI MM NOT_NAMED 1947-01-16 21:00:00 TS -19.4729 51.0319 main 207 207 P________PP___ SH081947 -19.8574 51.3128 -1 -19.8574 51.3128 TC 35 -19.8435 51.3410 2 9 164
1947011S12063 1947 2 SI MM NOT_NAMED 1947-01-17 00:00:00 TS -19.8848 51.1916 main 242 242 O________OP___ jtwc_sh SH081947 -20.3000 51.5000 -1 -20.3000 51.5000 TC 35 -20.2765 51.5448 2 9 156
1947011S12063 1947 2 SI MM NOT_NAMED 1947-01-17 03:00:00 TS -20.2944 51.4274 main 273 273 P________PP___ SH081947 -20.7349 51.7904 -1 -20.7349 51.7904 TC 35 -20.7213 51.8262 2 10 148
1947011S12063 1947 2 SI MM NOT_NAMED 1947-01-17 06:00:00 TS -20.7250 51.7500 reunion main 322 312 O________OO___ jtwc_sh SH081947 -21.2000 52.2000 -1 -21.2000 52.2000 TC 35 -21.2000 52.2000 2 11 143
1947011S12063 1947 2 SI MM NOT_NAMED 1947-01-17 09:00:00 TS -21.1890 52.1430 main 321 277 P________PP___ SH081947 -21.7275 52.7127 -1 -21.7275 52.7127 TC 30 -21.7643 52.6880 2 12 140
1947011S12063 1947 2 SI MM NOT_NAMED 1947-01-17 12:00:00 TS -21.6796 52.5998 main 277 248 O________OP___ jtwc_sh SH081947 -22.3000 53.3000 -1 -22.3000 53.3000 TC 25 -22.3587 53.2652 2 13 139
1947011S12063 1947 2 SI MM NOT_NAMED 1947-01-17 15:00:00 TS -22.1894 53.0786 main 248 235 P________PP___ SH081947 -22.9149 53.8999 -1 -22.9149 53.8999 TC 25 -22.9486 53.8851 2 13 138
1947011S12063 1947 2 SI MM NOT_NAMED 1947-01-17 18:00:00 TS -22.6766 53.5618 main 234 232 O________OO___ jtwc_sh SH081947 -23.5000 54.5000 -1 -23.5000 54.5000 TC 25 -23.5000 54.5000 7 13 136
1947011S12063 1947 2 SI MM NOT_NAMED 1947-01-17 21:00:00 TS -23.0997 54.0232 main 241 236 P________PP___ SH081947 -23.9798 55.0656 -1 -23.9798 55.0656 TC 25 -23.9881 55.0714 7 8 135
1947011S12063 1947 2 SI MM NOT_NAMED 1947-01-18 00:00:00 TS -23.2743 54.2041 main 250 250 O________OP___ jtwc_sh SH081947 -24.4000 55.6000 -1 -24.4000 55.6000 TC 25 -24.4224 55.6024 7 2 145
1947011S12063 1947 2 SI MM NOT_NAMED 1947-01-18 03:00:00 TS -23.3002 54.1696 main 250 247 P________PP___ SH081947 -24.8028 56.1068 -1 -24.8028 56.1068 TC 25 -24.8206 56.1071 7 5 297
1947011S12063 1947 2 SI MM NOT_NAMED 1947-01-18 06:00:00 TS -23.0286 53.6857 reunion main 251 251 O________OO___ jtwc_sh SH081947 -25.2000 56.6000 -1 -25.2000 56.6000 TC 25 -25.2000 56.6000 7 27 304
1947011S12063 1947 2 SI MM NOT_NAMED 1947-01-18 09:00:00 NR -21.8199 51.7726 main 360 352 ______________ SH081947 -1 TC 7 17 296
1947011S12063 1947 2 SI MM NOT_NAMED 1947-01-18 12:00:00 NR -22.2924 52.0788 main 347 337 ______________ -1 7 12 149
1947011S12063 1947 2 SI MM NOT_NAMED 1947-01-18 15:00:00 NR -22.8100 52.4148 main 342 336 ______________ -1 7 13 149
1947011S12063 1947 2 SI MM NOT_NAMED 1947-01-18 18:00:00 NR -23.3648 52.7767 main 348 348 ______________ -1 13 149
1947011S12063 1947 2 SI MM NOT_NAMED 1947-01-18 21:00:00 NR -23.9491 53.1604 main 361 361 ______________ -1 14 149
1947011S12063 1947 2 SI MM NOT_NAMED 1947-01-19 00:00:00 NR -24.5549 53.5618 main 407 407 ______________ -1 14 149
1947011S12063 1947 2 SI MM NOT_NAMED 1947-01-19 03:00:00 NR -25.1745 53.9765 main 455 455 ______________ -1 15 149
1947011S12063 1947 2 SI MM NOT_NAMED 1947-01-19 06:00:00 NR -25.8000 54.4000 reunion main 506 ______________ -1 15 149

IBTrACS Databaseについて

本データベースは、米国NOAAが公開する1842年以降の世界の熱帯低気圧のベストトラックデータアーカイブInternational Best Track Archive for Climate Stewardship (IBTrACS)を、ウェブで閲覧しやすい形式に変換したものです。

最終更新日:2021-11-26